Terminal Aerodrome Forecast
Issued by NWS Huntsville, AL

Home | Current Version | Previous Version | Text Only | Print | Product List | Glossary On
Versions: 1 2 3 4 5 6 7 8 9 10 11 12 13 14 15 16 17 18 19 20 21 22 23 24 25 26 27 28 29 30 31 32 33 34 35 36 37
000
FTUS44 KHUN 301913 AAA
TAFHSV
TAF AMD
KHSV 301913Z 3019/3118 20010G25KT P6SM SCT030 OVC200
      TEMPO 3023/3102 VRB15G30KT 2SM TSRA BR OVC015CB
     FM310200 21012KT 5SM -TSRA BR BKN030CB
     FM310800 26006KT P6SM BKN050
     FM311500 27010G20KT P6SM BKN060=

USA.gov is the U.S. government's official web portal to all federal, state and local government web resources and services.